createdAt,value
2023-05-10T00:00:23.573Z,90.48
2023-05-10T00:02:50.540Z,90.16
2023-05-10T00:05:17.590Z,89.81
2023-05-10T00:07:47.397Z,90.36
2023-05-10T00:10:14.170Z,90.03
2023-05-10T00:12:41.170Z,89.97
2023-05-10T00:15:08.897Z,89.95
2023-05-10T00:17:35.706Z,90.10
2023-05-10T00:20:02.969Z,89.80
2023-05-10T00:22:29.530Z,90.44
2023-05-10T00:24:56.248Z,90.21
2023-05-10T00:27:25.674Z,90.10
2023-05-10T00:29:52.276Z,89.88
2023-05-10T00:32:19.040Z,89.91
2023-05-10T00:34:45.713Z,89.29
2023-05-10T00:37:12.368Z,90.38
2023-05-10T00:39:39.016Z,90.31
2023-05-10T00:42:05.863Z,90.12
2023-05-10T00:44:32.950Z,90.52
2023-05-10T00:47:00.385Z,90.49
2023-05-10T00:49:27.212Z,90.00
2023-05-10T00:51:54.051Z,89.96
2023-05-10T00:54:21.605Z,89.51
2023-05-10T00:56:50.110Z,88.76
2023-05-10T00:59:18.666Z,88.78
2023-05-10T01:01:46.377Z,88.04
2023-05-10T01:04:14.407Z,88.31
2023-05-10T01:06:42.991Z,87.29
2023-05-10T01:09:12.719Z,87.20
2023-05-10T01:11:41.063Z,87.79
2023-05-10T01:14:08.079Z,87.18
2023-05-10T01:16:38.574Z,87.31
2023-05-10T01:19:12.996Z,87.65
2023-05-10T01:21:58.086Z,86.23
2023-05-10T01:24:24.866Z,85.75
2023-05-10T01:26:51.675Z,86.22
2023-05-10T01:29:37.976Z,85.77
2023-05-10T01:32:26.025Z,85.89
2023-05-10T01:35:01.917Z,86.12
2023-05-10T01:37:37.383Z,85.86
2023-05-10T01:40:09.968Z,85.41
2023-05-10T01:42:52.982Z,85.14
2023-05-10T01:45:30.034Z,85.48
2023-05-10T01:48:07.783Z,85.62
2023-05-10T01:50:37.179Z,85.48
2023-05-10T01:53:09.035Z,84.56
2023-05-10T01:55:49.773Z,85.22
2023-05-10T01:58:23.632Z,84.84
2023-05-10T02:00:52.981Z,84.76
2023-05-10T02:03:23.122Z,84.19
2023-05-10T02:05:51.725Z,83.75
2023-05-10T02:08:22.895Z,83.46
2023-05-10T02:10:53.136Z,83.51
2023-05-10T02:13:20.872Z,83.02
2023-05-10T02:15:49.842Z,82.59
2023-05-10T02:18:18.255Z,82.72
2023-05-10T02:20:47.526Z,82.71
2023-05-10T02:23:18.200Z,82.42
2023-05-10T02:25:48.297Z,82.17
2023-05-10T02:28:17.213Z,82.19
2023-05-10T02:30:44.493Z,81.96
2023-05-10T02:33:12.775Z,81.89
2023-05-10T02:35:39.954Z,82.00
2023-05-10T02:38:08.460Z,82.41
2023-05-10T02:40:37.602Z,82.34
2023-05-10T02:43:07.106Z,82.17
2023-05-10T02:45:36.642Z,81.23
2023-05-10T02:48:03.931Z,82.08
2023-05-10T02:50:33.471Z,81.69
2023-05-10T02:53:10.921Z,82.42
2023-05-10T02:55:39.938Z,82.25
2023-05-10T02:58:07.700Z,82.17
2023-05-10T03:00:34.854Z,82.05
2023-05-10T03:03:01.481Z,81.66
2023-05-10T03:05:28.760Z,82.13
2023-05-10T03:07:59.035Z,82.33
2023-05-10T03:10:30.520Z,81.32
2023-05-10T03:13:16.275Z,82.28
2023-05-10T03:15:55.042Z,82.21
2023-05-10T03:18:49.258Z,81.51
2023-05-10T03:21:19.972Z,81.72
2023-05-10T03:23:57.053Z,82.14
2023-05-10T03:26:29.494Z,81.51
2023-05-10T03:29:07.524Z,81.34
2023-05-10T03:31:34.454Z,81.57
2023-05-10T03:34:01.316Z,82.16
2023-05-10T03:36:28.075Z,82.07
2023-05-10T03:38:55.672Z,81.54
2023-05-10T03:41:22.588Z,81.58
2023-05-10T03:43:53.052Z,82.14
2023-05-10T03:46:19.767Z,81.67
2023-05-10T03:48:46.638Z,81.89
2023-05-10T03:51:13.315Z,81.94
2023-05-10T03:53:40.370Z,80.99
2023-05-10T03:56:07.230Z,81.00
2023-05-10T03:58:33.865Z,81.23
2023-05-10T04:01:00.538Z,81.64
2023-05-10T04:03:27.550Z,81.63
2023-05-10T04:06:02.255Z,81.72
2023-05-10T04:08:29.724Z,81.82
2023-05-10T04:11:13.143Z,81.97
2023-05-10T04:13:39.772Z,81.64
2023-05-10T04:16:06.681Z,81.88
2023-05-10T04:18:33.796Z,82.08
2023-05-10T04:21:00.483Z,81.79
2023-05-10T04:23:29.359Z,81.87
2023-05-10T04:26:03.913Z,81.99
2023-05-10T04:28:30.653Z,82.17
2023-05-10T04:31:08.731Z,82.16
2023-05-10T04:33:36.552Z,82.03
2023-05-10T04:36:04.355Z,82.29
2023-05-10T04:38:32.300Z,82.14
2023-05-10T04:41:11.339Z,82.09
2023-05-10T04:43:39.325Z,81.64
2023-05-10T04:46:07.080Z,82.40
2023-05-10T04:48:34.588Z,81.83
2023-05-10T04:51:04.534Z,82.12
2023-05-10T04:53:31.174Z,82.01
2023-05-10T04:55:57.930Z,82.24
2023-05-10T04:58:24.730Z,81.55
2023-05-10T05:00:51.543Z,82.30
2023-05-10T05:03:18.394Z,82.32
2023-05-10T05:05:45.869Z,82.23
2023-05-10T05:08:12.550Z,82.58
2023-05-10T05:10:39.697Z,81.91
2023-05-10T05:13:06.697Z,81.79
2023-05-10T05:15:34.209Z,81.60
2023-05-10T05:18:01.281Z,81.66
2023-05-10T05:20:28.200Z,81.76
2023-05-10T05:22:56.551Z,81.38
2023-05-10T05:25:26.126Z,81.32
2023-05-10T05:27:52.729Z,81.29
2023-05-10T05:30:19.517Z,80.91
2023-05-10T05:32:48.017Z,80.19
2023-05-10T05:35:14.907Z,80.66
2023-05-10T05:37:41.748Z,80.27
2023-05-10T05:40:09.240Z,79.69
2023-05-10T05:42:36.231Z,79.58
2023-05-10T05:45:03.184Z,79.34
2023-05-10T05:47:30.007Z,79.93
2023-05-10T05:49:56.691Z,80.19
2023-05-10T05:52:26.477Z,79.54
2023-05-10T05:54:53.170Z,79.79
2023-05-10T05:57:19.833Z,79.09
2023-05-10T05:59:47.835Z,79.46
2023-05-10T06:02:14.698Z,79.65
2023-05-10T06:04:44.400Z,78.90
2023-05-10T06:07:11.464Z,78.54
2023-05-10T06:09:38.787Z,78.65
2023-05-10T06:12:06.061Z,79.03
2023-05-10T06:14:32.766Z,79.23
2023-05-10T06:17:00.880Z,78.42
2023-05-10T06:19:28.409Z,78.65
2023-05-10T06:21:55.120Z,78.83
2023-05-10T06:24:24.761Z,78.46
2023-05-10T06:26:51.575Z,79.24
2023-05-10T06:29:18.605Z,79.08
2023-05-10T06:31:49.384Z,78.83
2023-05-10T06:34:26.783Z,78.93
2023-05-10T06:36:53.924Z,78.55
2023-05-10T06:39:21.640Z,78.53
2023-05-10T06:41:50.292Z,77.72
2023-05-10T06:44:20.762Z,78.21
2023-05-10T06:46:47.882Z,78.22
2023-05-10T06:49:14.954Z,78.43
2023-05-10T06:51:41.934Z,78.82
2023-05-10T06:54:08.669Z,79.36
2023-05-10T06:56:35.518Z,78.86
2023-05-10T06:59:02.557Z,78.51
2023-05-10T07:01:29.393Z,79.16
2023-05-10T07:03:56.665Z,79.21
2023-05-10T07:06:32.897Z,79.53
2023-05-10T07:09:01.643Z,79.42
2023-05-10T07:11:28.352Z,79.81
2023-05-10T07:13:57.593Z,79.15
2023-05-10T07:16:24.583Z,79.15
2023-05-10T07:18:52.931Z,79.67
2023-05-10T07:21:19.635Z,80.04
2023-05-10T07:23:47.779Z,79.51
2023-05-10T07:26:18.004Z,80.05
2023-05-10T07:28:48.775Z,80.05
2023-05-10T07:31:18.306Z,79.96
2023-05-10T07:33:45.187Z,80.39
2023-05-10T07:36:11.774Z,80.41
2023-05-10T07:38:40.817Z,81.60
2023-05-10T07:41:07.898Z,81.99
2023-05-10T07:43:34.608Z,80.71
2023-05-10T07:46:01.744Z,80.72
2023-05-10T07:48:28.587Z,80.25
2023-05-10T07:50:57.324Z,79.09
2023-05-10T07:53:28.463Z,78.58
2023-05-10T07:55:59.297Z,78.15
2023-05-10T07:58:26.444Z,77.81
2023-05-10T08:00:53.329Z,77.24
2023-05-10T08:03:20.717Z,76.79
2023-05-10T08:05:47.545Z,76.48
2023-05-10T08:08:14.096Z,75.30
2023-05-10T08:10:40.747Z,74.58
2023-05-10T08:13:07.465Z,75.40
2023-05-10T08:15:34.153Z,75.72
2023-05-10T08:18:01.003Z,75.51
2023-05-10T08:20:27.773Z,75.20
2023-05-10T08:22:54.474Z,73.93
2023-05-10T08:25:21.197Z,72.51
2023-05-10T08:27:47.760Z,71.77
2023-05-10T08:30:15.070Z,70.98
2023-05-10T08:32:41.873Z,69.73
2023-05-10T08:35:08.951Z,69.55
2023-05-10T08:37:35.827Z,69.42
2023-05-10T08:40:02.875Z,68.40
2023-05-10T08:42:32.517Z,67.08
2023-05-10T08:45:00.570Z,66.58
2023-05-10T08:47:27.776Z,67.09
2023-05-10T08:49:55.733Z,69.88
2023-05-10T08:52:24.613Z,70.62
2023-05-10T08:54:51.435Z,71.40
2023-05-10T08:57:21.724Z,71.93
2023-05-10T08:59:48.855Z,71.63
2023-05-10T09:02:18.678Z,71.53
2023-05-10T09:04:45.635Z,71.99
2023-05-10T09:07:12.456Z,71.59
2023-05-10T09:09:39.636Z,70.77
2023-05-10T09:12:07.403Z,71.08
2023-05-10T09:14:40.476Z,70.03
2023-05-10T09:17:07.936Z,69.91
2023-05-10T09:19:35.242Z,70.06
2023-05-10T09:22:08.130Z,69.32
2023-05-10T09:24:39.963Z,69.03
2023-05-10T09:27:07.647Z,68.01
2023-05-10T09:29:43.989Z,69.47
2023-05-10T09:32:10.637Z,69.05
2023-05-10T09:34:40.879Z,67.91
2023-05-10T09:37:09.170Z,68.06
2023-05-10T09:39:37.950Z,67.88
2023-05-10T09:42:11.384Z,68.48
2023-05-10T09:44:39.100Z,67.92
2023-05-10T09:47:05.784Z,66.10
2023-05-10T09:49:32.569Z,66.68
2023-05-10T09:52:07.492Z,65.06
2023-05-10T09:54:35.275Z,64.69
2023-05-10T09:57:02.233Z,63.87
2023-05-10T09:59:29.697Z,63.87
2023-05-10T10:02:03.483Z,63.96
2023-05-10T10:04:30.492Z,63.78
2023-05-10T10:07:02.475Z,64.01
2023-05-10T10:09:29.753Z,64.29
2023-05-10T10:11:57.607Z,65.54
2023-05-10T10:14:24.961Z,65.84
2023-05-10T10:17:05.932Z,66.94
2023-05-10T10:19:37.642Z,66.88
2023-05-10T10:22:05.398Z,67.05
2023-05-10T10:24:32.275Z,66.54
2023-05-10T10:27:09.984Z,65.87
2023-05-10T10:29:40.604Z,64.91
2023-05-10T10:32:27.471Z,63.74
2023-05-10T10:34:56.196Z,63.10
2023-05-10T10:37:22.959Z,63.30
2023-05-10T10:39:51.257Z,62.13
2023-05-10T10:42:48.173Z,60.77
2023-05-10T10:45:15.310Z,59.47
2023-05-10T10:47:44.084Z,58.13
2023-05-10T10:50:13.787Z,57.90
2023-05-10T10:52:41.949Z,58.10
2023-05-10T10:55:11.712Z,56.99
2023-05-10T10:57:48.324Z,53.36
2023-05-10T11:00:37.862Z,49.42
2023-05-10T11:03:20.516Z,46.75
2023-05-10T11:05:52.240Z,44.13
2023-05-10T11:08:30.310Z,40.82
2023-05-10T11:10:59.896Z,40.56
2023-05-10T11:13:44.142Z,39.19
2023-05-10T11:16:28.844Z,37.65
2023-05-10T11:19:04.022Z,35.01
2023-05-10T11:21:32.081Z,37.81
2023-05-10T11:24:00.442Z,42.18
2023-05-10T11:26:36.318Z,44.47
2023-05-10T11:29:05.557Z,43.96
2023-05-10T11:31:33.246Z,40.67
2023-05-10T11:34:02.726Z,37.46
2023-05-10T11:36:34.084Z,35.38
2023-05-10T11:39:01.142Z,34.98
2023-05-10T11:41:29.315Z,38.32
2023-05-10T11:43:57.233Z,38.53
2023-05-10T11:46:26.229Z,35.43
2023-05-10T11:48:57.170Z,35.08
2023-05-10T11:51:28.955Z,35.71
2023-05-10T11:53:57.622Z,32.92
2023-05-10T11:56:27.041Z,30.45
2023-05-10T11:58:56.701Z,29.64
2023-05-10T12:01:24.455Z,30.25
2023-05-10T12:03:53.871Z,33.47
2023-05-10T12:06:22.316Z,34.57
2023-05-10T12:08:53.468Z,36.71
2023-05-10T12:11:22.735Z,37.98
2023-05-10T12:13:50.757Z,39.55
2023-05-10T12:16:29.127Z,38.38
2023-05-10T12:19:01.602Z,40.78
2023-05-10T12:21:34.368Z,41.20
2023-05-10T12:24:05.853Z,42.00
2023-05-10T12:26:33.320Z,42.89
2023-05-10T12:29:19.535Z,43.06
2023-05-10T12:32:00.497Z,42.85
2023-05-10T12:34:38.041Z,42.31
2023-05-10T12:37:05.028Z,42.27
2023-05-10T12:39:45.851Z,42.48
2023-05-10T12:42:12.828Z,43.20
2023-05-10T12:44:40.735Z,43.29
2023-05-10T12:47:07.476Z,39.39
2023-05-10T12:49:34.938Z,37.22
2023-05-10T12:52:01.686Z,35.37
2023-05-10T12:54:28.800Z,37.29
2023-05-10T12:56:55.308Z,38.07
2023-05-10T12:59:21.973Z,38.99
2023-05-10T13:01:48.544Z,40.19
2023-05-10T13:04:15.172Z,41.40
2023-05-10T13:06:42.051Z,42.72
2023-05-10T13:09:08.745Z,43.36
2023-05-10T13:11:35.735Z,42.32
2023-05-10T13:14:04.097Z,40.85
2023-05-10T13:16:31.030Z,38.04
2023-05-10T13:18:57.769Z,34.48
2023-05-10T13:21:26.029Z,36.14
2023-05-10T13:23:52.905Z,36.68
2023-05-10T13:26:20.014Z,34.77
2023-05-10T13:28:46.989Z,32.93
2023-05-10T13:31:13.466Z,30.64
2023-05-10T13:33:40.129Z,27.07
2023-05-10T13:36:07.619Z,28.00
2023-05-10T13:38:34.227Z,29.07
2023-05-10T13:41:00.913Z,30.47
2023-05-10T13:43:27.556Z,31.70
2023-05-10T13:45:54.177Z,33.48
2023-05-10T13:48:20.782Z,35.75
2023-05-10T13:50:48.021Z,34.90
2023-05-10T13:53:15.499Z,33.54
2023-05-10T13:55:42.423Z,31.89
2023-05-10T13:58:09.007Z,31.36
2023-05-10T14:00:35.553Z,32.29
2023-05-10T14:03:02.311Z,30.44
2023-05-10T14:05:29.339Z,30.36
2023-05-10T14:07:56.264Z,30.47
2023-05-10T14:10:23.133Z,30.11
2023-05-10T14:12:51.263Z,32.16
2023-05-10T14:15:18.076Z,31.81
2023-05-10T14:17:44.995Z,36.28
2023-05-10T14:20:12.224Z,37.23
2023-05-10T14:22:38.846Z,36.76
2023-05-10T14:25:05.759Z,37.60
2023-05-10T14:27:32.570Z,38.50
2023-05-10T14:29:59.254Z,38.77
2023-05-10T14:32:25.886Z,39.88
2023-05-10T14:34:52.622Z,41.02
2023-05-10T14:37:19.240Z,40.86
2023-05-10T14:39:46.302Z,40.53
2023-05-10T14:42:12.908Z,39.71
2023-05-10T14:44:39.563Z,40.72
2023-05-10T14:47:06.259Z,40.45
2023-05-10T14:49:32.836Z,41.07
2023-05-10T14:51:59.379Z,40.89
2023-05-10T14:54:25.977Z,38.65
2023-05-10T14:56:52.605Z,38.28
2023-05-10T14:59:19.195Z,38.88
2023-05-10T15:01:46.106Z,38.18
2023-05-10T15:04:14.421Z,37.61
2023-05-10T15:06:41.907Z,36.66
2023-05-10T15:09:08.572Z,36.57
2023-05-10T15:11:35.609Z,36.53
2023-05-10T15:14:02.853Z,34.78
2023-05-10T15:16:29.577Z,33.73
2023-05-10T15:18:56.446Z,34.59
2023-05-10T15:21:23.085Z,33.69
2023-05-10T15:23:49.798Z,35.01
2023-05-10T15:26:16.771Z,35.28
2023-05-10T15:28:43.842Z,36.20
2023-05-10T15:31:10.496Z,36.32
2023-05-10T15:33:39.209Z,38.21
2023-05-10T15:36:06.107Z,38.64
2023-05-10T15:38:32.750Z,38.96
2023-05-10T15:40:59.394Z,39.20
2023-05-10T15:43:25.968Z,37.40
2023-05-10T15:45:52.521Z,37.89
2023-05-10T15:48:19.123Z,37.57
2023-05-10T15:50:45.963Z,38.69
2023-05-10T15:53:12.555Z,39.21
2023-05-10T15:55:39.171Z,39.54
2023-05-10T15:58:05.817Z,39.45
2023-05-10T16:00:32.559Z,40.86
2023-05-10T16:02:59.329Z,41.71
2023-05-10T16:05:29.291Z,42.66
2023-05-10T16:07:55.937Z,41.42
2023-05-10T16:10:22.563Z,42.62
2023-05-10T16:12:49.183Z,42.90
2023-05-10T16:15:15.909Z,42.63
2023-05-10T16:17:42.925Z,42.27
2023-05-10T16:20:09.869Z,41.43
2023-05-10T16:22:36.727Z,41.68
2023-05-10T16:25:03.752Z,41.48
2023-05-10T16:27:33.295Z,41.11
2023-05-10T16:29:59.937Z,41.91
2023-05-10T16:32:26.694Z,42.14
2023-05-10T16:34:53.499Z,42.54
2023-05-10T16:37:20.890Z,42.66
2023-05-10T16:39:48.043Z,43.42
2023-05-10T16:42:14.653Z,44.91
2023-05-10T16:44:41.369Z,47.86
2023-05-10T16:47:08.498Z,48.00
2023-05-10T16:49:36.180Z,49.14
2023-05-10T16:52:03.360Z,49.33
2023-05-10T16:54:30.176Z,49.68
2023-05-10T16:56:56.855Z,49.46
2023-05-10T16:59:23.514Z,49.47
2023-05-10T17:01:50.174Z,49.84
2023-05-10T17:04:17.680Z,50.54
2023-05-10T17:06:44.295Z,49.65
2023-05-10T17:09:11.987Z,50.30
2023-05-10T17:11:38.747Z,50.77
2023-05-10T17:14:05.430Z,51.58
2023-05-10T17:16:32.067Z,51.65
2023-05-10T17:18:58.864Z,51.47
2023-05-10T17:21:25.551Z,52.22
2023-05-10T17:23:52.187Z,52.68
2023-05-10T17:26:18.752Z,52.44
2023-05-10T17:28:45.434Z,52.60
2023-05-10T17:31:12.114Z,53.16
2023-05-10T17:33:39.238Z,53.46
2023-05-10T17:36:08.813Z,53.41
2023-05-10T17:38:36.420Z,53.74
2023-05-10T17:41:02.942Z,54.12
2023-05-10T17:43:29.620Z,54.69
2023-05-10T17:45:56.289Z,55.03
2023-05-10T17:48:23.033Z,55.33
2023-05-10T17:50:50.906Z,55.65
2023-05-10T17:53:18.433Z,55.88
2023-05-10T17:55:45.308Z,56.09
2023-05-10T17:58:12.513Z,56.35
2023-05-10T18:00:39.580Z,56.56
2023-05-10T18:03:06.372Z,56.72
2023-05-10T18:05:37.491Z,57.11
2023-05-10T18:08:05.279Z,56.97
2023-05-10T18:10:32.265Z,57.70
2023-05-10T18:12:59.132Z,57.87
2023-05-10T18:15:26.884Z,59.47
2023-05-10T18:17:53.574Z,58.12
2023-05-10T18:20:20.234Z,58.87
2023-05-10T18:22:47.017Z,62.32
2023-05-10T18:25:13.826Z,65.57
2023-05-10T18:27:40.578Z,67.18
2023-05-10T18:30:10.073Z,68.06
2023-05-10T18:32:38.363Z,71.20
2023-05-10T18:35:06.835Z,71.42
2023-05-10T18:37:33.910Z,73.49
2023-05-10T18:40:00.738Z,74.99
2023-05-10T18:42:27.755Z,78.82
2023-05-10T18:44:55.367Z,75.11
2023-05-10T18:47:22.145Z,76.86
2023-05-10T18:49:48.930Z,78.52
2023-05-10T18:52:16.103Z,79.35
2023-05-10T18:54:42.740Z,79.20
2023-05-10T18:57:09.390Z,78.25
2023-05-10T18:59:36.086Z,77.40
2023-05-10T19:02:04.563Z,76.63
2023-05-10T19:04:33.084Z,78.85
2023-05-10T19:07:02.018Z,77.71
2023-05-10T19:09:30.058Z,82.45
2023-05-10T19:11:56.836Z,81.77
2023-05-10T19:14:26.012Z,82.73
2023-05-10T19:16:53.484Z,80.66
2023-05-10T19:19:23.946Z,81.74
2023-05-10T19:21:51.797Z,80.90
2023-05-10T19:24:19.717Z,82.71
2023-05-10T19:26:48.564Z,79.95
2023-05-10T19:29:15.581Z,81.65
2023-05-10T19:31:42.400Z,80.27
2023-05-10T19:34:09.205Z,78.95
2023-05-10T19:36:36.014Z,79.41
2023-05-10T19:39:03.902Z,80.15
2023-05-10T19:41:31.882Z,79.12
2023-05-10T19:43:58.523Z,76.98
2023-05-10T19:46:25.454Z,77.42
2023-05-10T19:48:52.360Z,77.14
2023-05-10T19:51:18.965Z,76.32
2023-05-10T19:53:46.007Z,77.21
2023-05-10T19:56:13.228Z,76.32
2023-05-10T19:58:40.863Z,77.51
2023-05-10T20:01:07.961Z,78.39
2023-05-10T20:03:35.605Z,77.16
2023-05-10T20:06:02.797Z,77.62
2023-05-10T20:08:29.842Z,78.35
2023-05-10T20:10:59.138Z,78.04
2023-05-10T20:13:26.124Z,77.92
2023-05-10T20:15:56.630Z,78.87
2023-05-10T20:18:23.775Z,78.30
2023-05-10T20:20:59.556Z,78.28
2023-05-10T20:23:26.811Z,77.87
2023-05-10T20:25:54.627Z,79.57
2023-05-10T20:28:26.291Z,78.19
2023-05-10T20:30:55.769Z,79.64
2023-05-10T20:33:22.846Z,79.51
2023-05-10T20:35:52.356Z,79.61
2023-05-10T20:38:19.112Z,77.52
2023-05-10T20:40:46.725Z,76.80
2023-05-10T20:43:13.302Z,77.65
2023-05-10T20:45:39.972Z,76.61
2023-05-10T20:48:07.682Z,76.85
2023-05-10T20:50:34.458Z,76.93
2023-05-10T20:55:28.433Z,78.14
2023-05-10T20:57:55.313Z,77.67
2023-05-10T21:00:22.000Z,76.67
2023-05-10T21:02:48.931Z,76.28
2023-05-10T21:05:17.895Z,76.94
2023-05-10T21:07:44.601Z,76.65
2023-05-10T21:10:11.657Z,76.95
2023-05-10T21:12:38.410Z,77.08
2023-05-10T21:15:05.484Z,77.60
2023-05-10T21:17:32.083Z,77.50
2023-05-10T21:19:58.722Z,78.43
2023-05-10T21:22:25.329Z,79.82
2023-05-10T21:24:51.974Z,82.86
2023-05-10T21:27:18.599Z,83.80
2023-05-10T21:29:45.712Z,84.49
2023-05-10T21:32:12.352Z,84.51
2023-05-10T21:34:39.013Z,85.53
2023-05-10T21:37:05.996Z,84.64
2023-05-10T21:39:32.609Z,84.37
2023-05-10T21:42:00.274Z,85.85
2023-05-10T21:44:26.931Z,86.25
2023-05-10T21:46:53.588Z,87.89
2023-05-10T21:49:20.245Z,87.48
2023-05-10T21:51:47.341Z,87.56
2023-05-10T21:54:14.029Z,88.62
2023-05-10T21:56:40.586Z,89.16
2023-05-10T21:59:07.215Z,87.82
2023-05-10T22:01:33.925Z,86.68
2023-05-10T22:04:00.723Z,85.55
2023-05-10T22:06:27.415Z,83.96
2023-05-10T22:08:54.312Z,84.19
2023-05-10T22:11:21.830Z,84.74
2023-05-10T22:13:48.462Z,83.33
2023-05-10T22:16:15.568Z,82.70
2023-05-10T22:18:43.551Z,82.85
2023-05-10T22:21:10.666Z,82.23
2023-05-10T22:23:37.382Z,80.25
2023-05-10T22:26:04.682Z,81.08
2023-05-10T22:28:31.258Z,82.77
2023-05-10T22:30:58.386Z,79.78
2023-05-10T22:33:25.230Z,79.08
2023-05-10T22:35:52.154Z,81.23
2023-05-10T22:38:18.860Z,82.10
2023-05-10T22:40:45.516Z,83.78
2023-05-10T22:43:12.176Z,82.50
2023-05-10T22:45:38.833Z,82.31
2023-05-10T22:48:05.649Z,81.97
2023-05-10T22:50:32.279Z,82.39
2023-05-10T22:52:59.091Z,84.59
2023-05-10T22:55:25.810Z,83.56
2023-05-10T22:57:52.553Z,84.49
2023-05-10T23:00:20.060Z,81.93
2023-05-10T23:02:47.128Z,81.87
2023-05-10T23:05:14.001Z,80.80
2023-05-10T23:07:40.804Z,80.64
2023-05-10T23:10:08.105Z,81.70
2023-05-10T23:12:35.050Z,82.50
2023-05-10T23:15:01.659Z,80.64
2023-05-10T23:17:28.381Z,81.17
2023-05-10T23:19:55.130Z,81.86
2023-05-10T23:22:21.839Z,81.76
2023-05-10T23:24:48.458Z,82.67
2023-05-10T23:27:15.098Z,82.02
2023-05-10T23:29:41.731Z,82.83
2023-05-10T23:32:08.397Z,82.77
2023-05-10T23:34:35.134Z,82.83
2023-05-10T23:37:02.347Z,83.16
2023-05-10T23:39:29.011Z,83.59
2023-05-10T23:41:55.587Z,82.51
2023-05-10T23:44:22.197Z,81.45
2023-05-10T23:46:48.798Z,81.97
2023-05-10T23:49:15.358Z,82.36
2023-05-10T23:51:41.998Z,81.88
2023-05-10T23:54:08.734Z,82.66
2023-05-10T23:56:35.413Z,83.33
2023-05-10T23:59:01.940Z,83.68
